sensor_id;sensor_type;location;lat;lon;timestamp;P1;durP1;ratioP1;P2;durP2;ratioP2
2039;SDS011;1025;42.686;23.350;2023-03-14T00:01:38;6.70;;;5.80;;
2039;SDS011;1025;42.686;23.350;2023-03-14T00:04:05;5.97;;;5.37;;
2039;SDS011;1025;42.686;23.350;2023-03-14T00:06:31;6.23;;;5.47;;
2039;SDS011;1025;42.686;23.350;2023-03-14T00:08:58;5.60;;;5.03;;
2039;SDS011;1025;42.686;23.350;2023-03-14T00:11:26;5.93;;;5.40;;
2039;SDS011;1025;42.686;23.350;2023-03-14T00:13:52;6.20;;;5.60;;
2039;SDS011;1025;42.686;23.350;2023-03-14T00:16:19;4.57;;;4.17;;
2039;SDS011;1025;42.686;23.350;2023-03-14T00:18:46;6.20;;;5.63;;
2039;SDS011;1025;42.686;23.350;2023-03-14T00:21:12;5.87;;;5.37;;
2039;SDS011;1025;42.686;23.350;2023-03-14T00:23:40;6.60;;;6.00;;
2039;SDS011;1025;42.686;23.350;2023-03-14T00:26:07;7.40;;;5.90;;
2039;SDS011;1025;42.686;23.350;2023-03-14T00:28:36;7.03;;;5.17;;
2039;SDS011;1025;42.686;23.350;2023-03-14T00:31:02;3.73;;;3.43;;
2039;SDS011;1025;42.686;23.350;2023-03-14T00:33:29;6.30;;;5.70;;
2039;SDS011;1025;42.686;23.350;2023-03-14T00:35:56;5.20;;;4.63;;
2039;SDS011;1025;42.686;23.350;2023-03-14T00:38:23;4.80;;;4.00;;
2039;SDS011;1025;42.686;23.350;2023-03-14T00:40:49;5.53;;;4.33;;
2039;SDS011;1025;42.686;23.350;2023-03-14T00:43:16;5.07;;;4.60;;
2039;SDS011;1025;42.686;23.350;2023-03-14T00:45:44;5.77;;;5.27;;
2039;SDS011;1025;42.686;23.350;2023-03-14T00:48:10;6.80;;;6.10;;
2039;SDS011;1025;42.686;23.350;2023-03-14T00:50:38;7.87;;;5.60;;
2039;SDS011;1025;42.686;23.350;2023-03-14T00:53:04;7.87;;;5.47;;
2039;SDS011;1025;42.686;23.350;2023-03-14T00:55:31;5.80;;;5.07;;
2039;SDS011;1025;42.686;23.350;2023-03-14T00:57:58;6.57;;;5.30;;
2039;SDS011;1025;42.686;23.350;2023-03-14T01:00:24;7.80;;;5.57;;
2039;SDS011;1025;42.686;23.350;2023-03-14T01:02:52;6.13;;;4.77;;
2039;SDS011;1025;42.686;23.350;2023-03-14T01:05:19;5.90;;;4.20;;
2039;SDS011;1025;42.686;23.350;2023-03-14T01:07:45;4.50;;;4.20;;
2039;SDS011;1025;42.686;23.350;2023-03-14T01:10:12;4.80;;;4.30;;
2039;SDS011;1025;42.686;23.350;2023-03-14T01:12:38;4.97;;;4.47;;
2039;SDS011;1025;42.686;23.350;2023-03-14T01:15:05;4.63;;;4.23;;
2039;SDS011;1025;42.686;23.350;2023-03-14T01:17:32;5.47;;;4.53;;
2039;SDS011;1025;42.686;23.350;2023-03-14T01:20:00;5.03;;;4.63;;
2039;SDS011;1025;42.686;23.350;2023-03-14T01:22:29;5.00;;;4.60;;
2039;SDS011;1025;42.686;23.350;2023-03-14T01:24:56;4.83;;;4.43;;
2039;SDS011;1025;42.686;23.350;2023-03-14T01:27:22;7.13;;;6.50;;
2039;SDS011;1025;42.686;23.350;2023-03-14T01:29:49;8.03;;;6.00;;
2039;SDS011;1025;42.686;23.350;2023-03-14T01:32:15;7.77;;;6.37;;
2039;SDS011;1025;42.686;23.350;2023-03-14T01:34:42;7.03;;;6.00;;
2039;SDS011;1025;42.686;23.350;2023-03-14T01:37:10;12.23;;;5.13;;
2039;SDS011;1025;42.686;23.350;2023-03-14T01:39:37;6.03;;;5.13;;
2039;SDS011;1025;42.686;23.350;2023-03-14T01:42:03;6.93;;;5.47;;
2039;SDS011;1025;42.686;23.350;2023-03-14T01:47:11;6.43;;;5.83;;
2039;SDS011;1025;42.686;23.350;2023-03-14T01:49:38;6.90;;;6.13;;
2039;SDS011;1025;42.686;23.350;2023-03-14T01:52:05;6.83;;;5.83;;
2039;SDS011;1025;42.686;23.350;2023-03-14T01:54:35;6.13;;;5.43;;
2039;SDS011;1025;42.686;23.350;2023-03-14T01:57:03;7.83;;;5.73;;
2039;SDS011;1025;42.686;23.350;2023-03-14T01:59:31;7.40;;;6.13;;
2039;SDS011;1025;42.686;23.350;2023-03-14T02:01:58;7.67;;;6.63;;
2039;SDS011;1025;42.686;23.350;2023-03-14T02:04:26;6.13;;;5.53;;
2039;SDS011;1025;42.686;23.350;2023-03-14T02:06:56;9.17;;;5.60;;
2039;SDS011;1025;42.686;23.350;2023-03-14T02:09:24;6.70;;;6.10;;
2039;SDS011;1025;42.686;23.350;2023-03-14T02:11:52;8.13;;;6.27;;
2039;SDS011;1025;42.686;23.350;2023-03-14T02:14:21;10.73;;;6.93;;
2039;SDS011;1025;42.686;23.350;2023-03-14T02:16:51;6.83;;;6.23;;
2039;SDS011;1025;42.686;23.350;2023-03-14T02:19:18;8.80;;;6.90;;
2039;SDS011;1025;42.686;23.350;2023-03-14T02:21:49;12.27;;;6.30;;
2039;SDS011;1025;42.686;23.350;2023-03-14T02:24:17;10.00;;;6.90;;
2039;SDS011;1025;42.686;23.350;2023-03-14T02:29:28;8.20;;;6.30;;
2039;SDS011;1025;42.686;23.350;2023-03-14T02:31:55;16.63;;;6.83;;
2039;SDS011;1025;42.686;23.350;2023-03-14T02:34:22;9.87;;;7.90;;
2039;SDS011;1025;42.686;23.350;2023-03-14T02:36:49;11.10;;;6.87;;
2039;SDS011;1025;42.686;23.350;2023-03-14T02:39:17;8.07;;;6.50;;
2039;SDS011;1025;42.686;23.350;2023-03-14T02:41:46;10.40;;;7.00;;
2039;SDS011;1025;42.686;23.350;2023-03-14T02:44:14;7.30;;;6.60;;
2039;SDS011;1025;42.686;23.350;2023-03-14T02:46:42;9.97;;;6.67;;
2039;SDS011;1025;42.686;23.350;2023-03-14T02:49:10;8.67;;;7.20;;
2039;SDS011;1025;42.686;23.350;2023-03-14T02:51:38;8.27;;;7.13;;
2039;SDS011;1025;42.686;23.350;2023-03-14T02:54:06;7.90;;;7.10;;
2039;SDS011;1025;42.686;23.350;2023-03-14T02:56:33;9.30;;;8.13;;
2039;SDS011;1025;42.686;23.350;2023-03-14T02:59:02;12.87;;;9.80;;
2039;SDS011;1025;42.686;23.350;2023-03-14T03:01:28;13.13;;;8.60;;
2039;SDS011;1025;42.686;23.350;2023-03-14T03:03:56;21.93;;;10.10;;
2039;SDS011;1025;42.686;23.350;2023-03-14T03:06:23;9.60;;;8.60;;
2039;SDS011;1025;42.686;23.350;2023-03-14T03:08:49;10.47;;;8.33;;
2039;SDS011;1025;42.686;23.350;2023-03-14T03:11:16;20.50;;;9.33;;
2039;SDS011;1025;42.686;23.350;2023-03-14T03:13:42;9.47;;;8.50;;
2039;SDS011;1025;42.686;23.350;2023-03-14T03:16:09;10.93;;;9.37;;
2039;SDS011;1025;42.686;23.350;2023-03-14T03:18:38;26.43;;;10.30;;
2039;SDS011;1025;42.686;23.350;2023-03-14T03:21:06;12.90;;;9.00;;
2039;SDS011;1025;42.686;23.350;2023-03-14T03:23:34;12.90;;;10.40;;
2039;SDS011;1025;42.686;23.350;2023-03-14T03:26:01;18.67;;;11.33;;
2039;SDS011;1025;42.686;23.350;2023-03-14T03:28:28;12.33;;;10.03;;
2039;SDS011;1025;42.686;23.350;2023-03-14T03:30:55;18.77;;;10.47;;
2039;SDS011;1025;42.686;23.350;2023-03-14T03:33:21;12.73;;;10.90;;
2039;SDS011;1025;42.686;23.350;2023-03-14T03:35:49;14.90;;;11.03;;
2039;SDS011;1025;42.686;23.350;2023-03-14T03:38:18;20.67;;;10.27;;
2039;SDS011;1025;42.686;23.350;2023-03-14T03:40:45;19.03;;;10.53;;
2039;SDS011;1025;42.686;23.350;2023-03-14T03:43:12;18.53;;;11.80;;
2039;SDS011;1025;42.686;23.350;2023-03-14T03:45:38;17.37;;;11.83;;
2039;SDS011;1025;42.686;23.350;2023-03-14T03:48:05;15.77;;;11.77;;
2039;SDS011;1025;42.686;23.350;2023-03-14T03:50:32;14.03;;;10.40;;
2039;SDS011;1025;42.686;23.350;2023-03-14T03:52:58;12.73;;;10.43;;
2039;SDS011;1025;42.686;23.350;2023-03-14T03:55:26;12.43;;;10.13;;
2039;SDS011;1025;42.686;23.350;2023-03-14T03:57:54;16.83;;;10.77;;
2039;SDS011;1025;42.686;23.350;2023-03-14T04:00:21;16.97;;;10.10;;
2039;SDS011;1025;42.686;23.350;2023-03-14T04:02:47;19.00;;;11.20;;
2039;SDS011;1025;42.686;23.350;2023-03-14T04:05:14;12.90;;;9.83;;
2039;SDS011;1025;42.686;23.350;2023-03-14T04:07:41;14.13;;;9.30;;
2039;SDS011;1025;42.686;23.350;2023-03-14T04:10:09;13.33;;;10.53;;
2039;SDS011;1025;42.686;23.350;2023-03-14T04:12:37;13.07;;;9.90;;
2039;SDS011;1025;42.686;23.350;2023-03-14T04:15:03;12.10;;;9.40;;
2039;SDS011;1025;42.686;23.350;2023-03-14T04:17:30;19.77;;;11.90;;
2039;SDS011;1025;42.686;23.350;2023-03-14T04:19:57;14.50;;;10.60;;
2039;SDS011;1025;42.686;23.350;2023-03-14T04:22:23;13.10;;;9.23;;
2039;SDS011;1025;42.686;23.350;2023-03-14T04:24:50;12.80;;;10.30;;
2039;SDS011;1025;42.686;23.350;2023-03-14T04:27:17;13.80;;;10.17;;
2039;SDS011;1025;42.686;23.350;2023-03-14T04:29:45;23.17;;;11.70;;
2039;SDS011;1025;42.686;23.350;2023-03-14T04:32:11;15.00;;;10.60;;
2039;SDS011;1025;42.686;23.350;2023-03-14T04:34:38;15.90;;;11.10;;
2039;SDS011;1025;42.686;23.350;2023-03-14T04:37:04;15.17;;;10.10;;
2039;SDS011;1025;42.686;23.350;2023-03-14T04:39:31;28.20;;;11.80;;
2039;SDS011;1025;42.686;23.350;2023-03-14T04:41:57;16.30;;;12.10;;
2039;SDS011;1025;42.686;23.350;2023-03-14T04:44:24;18.80;;;12.87;;
2039;SDS011;1025;42.686;23.350;2023-03-14T04:46:52;13.33;;;10.27;;
2039;SDS011;1025;42.686;23.350;2023-03-14T04:49:18;13.80;;;10.67;;
2039;SDS011;1025;42.686;23.350;2023-03-14T04:51:45;20.83;;;11.03;;
2039;SDS011;1025;42.686;23.350;2023-03-14T04:54:12;22.37;;;11.30;;
2039;SDS011;1025;42.686;23.350;2023-03-14T04:56:38;14.40;;;12.27;;
2039;SDS011;1025;42.686;23.350;2023-03-14T04:59:05;24.23;;;11.90;;
2039;SDS011;1025;42.686;23.350;2023-03-14T05:01:31;19.07;;;13.20;;
2039;SDS011;1025;42.686;23.350;2023-03-14T05:03:59;22.33;;;16.60;;
2039;SDS011;1025;42.686;23.350;2023-03-14T05:06:26;25.37;;;15.13;;
2039;SDS011;1025;42.686;23.350;2023-03-14T05:08:52;25.83;;;12.97;;
2039;SDS011;1025;42.686;23.350;2023-03-14T05:11:19;31.90;;;14.47;;
2039;SDS011;1025;42.686;23.350;2023-03-14T05:13:46;18.50;;;12.37;;
2039;SDS011;1025;42.686;23.350;2023-03-14T05:16:12;21.53;;;14.70;;
2039;SDS011;1025;42.686;23.350;2023-03-14T05:18:39;17.90;;;14.23;;
2039;SDS011;1025;42.686;23.350;2023-03-14T05:21:07;26.93;;;16.10;;
2039;SDS011;1025;42.686;23.350;2023-03-14T05:23:33;20.40;;;14.87;;
2039;SDS011;1025;42.686;23.350;2023-03-14T05:26:00;19.57;;;14.13;;
2039;SDS011;1025;42.686;23.350;2023-03-14T05:28:27;25.17;;;15.80;;
2039;SDS011;1025;42.686;23.350;2023-03-14T05:30:53;29.60;;;16.20;;
2039;SDS011;1025;42.686;23.350;2023-03-14T05:33:20;18.53;;;14.30;;
2039;SDS011;1025;42.686;23.350;2023-03-14T05:35:46;23.07;;;16.47;;
2039;SDS011;1025;42.686;23.350;2023-03-14T05:38:14;20.83;;;14.67;;
2039;SDS011;1025;42.686;23.350;2023-03-14T05:40:41;28.27;;;15.03;;
2039;SDS011;1025;42.686;23.350;2023-03-14T05:43:07;20.13;;;15.30;;
2039;SDS011;1025;42.686;23.350;2023-03-14T05:45:34;27.10;;;15.77;;
2039;SDS011;1025;42.686;23.350;2023-03-14T05:48:01;31.03;;;17.83;;
2039;SDS011;1025;42.686;23.350;2023-03-14T05:50:27;23.13;;;16.10;;
2039;SDS011;1025;42.686;23.350;2023-03-14T05:52:54;23.07;;;17.80;;
2039;SDS011;1025;42.686;23.350;2023-03-14T05:55:22;19.50;;;14.50;;
2039;SDS011;1025;42.686;23.350;2023-03-14T05:57:48;21.93;;;15.10;;
2039;SDS011;1025;42.686;23.350;2023-03-14T06:00:15;21.77;;;15.03;;
2039;SDS011;1025;42.686;23.350;2023-03-14T06:02:42;16.50;;;13.63;;
2039;SDS011;1025;42.686;23.350;2023-03-14T06:05:08;22.57;;;15.10;;
2039;SDS011;1025;42.686;23.350;2023-03-14T06:07:35;20.47;;;15.40;;
2039;SDS011;1025;42.686;23.350;2023-03-14T06:10:02;19.17;;;16.10;;
2039;SDS011;1025;42.686;23.350;2023-03-14T06:12:30;25.27;;;14.77;;
2039;SDS011;1025;42.686;23.350;2023-03-14T06:14:56;18.67;;;14.87;;
2039;SDS011;1025;42.686;23.350;2023-03-14T06:17:23;21.30;;;16.60;;
2039;SDS011;1025;42.686;23.350;2023-03-14T06:19:49;27.93;;;16.97;;
2039;SDS011;1025;42.686;23.350;2023-03-14T06:22:16;19.67;;;16.90;;
2039;SDS011;1025;42.686;23.350;2023-03-14T06:24:43;18.50;;;16.07;;
2039;SDS011;1025;42.686;23.350;2023-03-14T06:27:09;25.97;;;17.80;;
2039;SDS011;1025;42.686;23.350;2023-03-14T06:29:37;18.10;;;14.57;;
2039;SDS011;1025;42.686;23.350;2023-03-14T06:32:04;26.00;;;18.50;;
2039;SDS011;1025;42.686;23.350;2023-03-14T06:34:30;33.90;;;17.60;;
2039;SDS011;1025;42.686;23.350;2023-03-14T06:36:57;23.80;;;17.80;;
2039;SDS011;1025;42.686;23.350;2023-03-14T06:39:23;17.63;;;15.07;;
2039;SDS011;1025;42.686;23.350;2023-03-14T06:41:50;24.17;;;17.63;;
2039;SDS011;1025;42.686;23.350;2023-03-14T06:44:16;23.20;;;17.57;;
2039;SDS011;1025;42.686;23.350;2023-03-14T06:46:44;30.30;;;20.17;;
2039;SDS011;1025;42.686;23.350;2023-03-14T06:49:11;26.60;;;17.57;;
2039;SDS011;1025;42.686;23.350;2023-03-14T06:51:37;20.50;;;17.37;;
2039;SDS011;1025;42.686;23.350;2023-03-14T06:54:04;27.57;;;17.77;;
2039;SDS011;1025;42.686;23.350;2023-03-14T06:56:31;27.23;;;18.90;;
2039;SDS011;1025;42.686;23.350;2023-03-14T06:58:57;19.97;;;16.20;;
2039;SDS011;1025;42.686;23.350;2023-03-14T07:01:24;21.97;;;19.07;;
2039;SDS011;1025;42.686;23.350;2023-03-14T07:03:53;24.67;;;19.27;;
2039;SDS011;1025;42.686;23.350;2023-03-14T07:06:19;36.07;;;19.87;;
2039;SDS011;1025;42.686;23.350;2023-03-14T07:08:46;28.20;;;19.80;;
2039;SDS011;1025;42.686;23.350;2023-03-14T07:11:12;19.10;;;14.93;;
2039;SDS011;1025;42.686;23.350;2023-03-14T07:13:39;16.93;;;13.43;;
2039;SDS011;1025;42.686;23.350;2023-03-14T07:16:06;14.87;;;13.07;;
2039;SDS011;1025;42.686;23.350;2023-03-14T07:18:32;17.53;;;13.00;;
2039;SDS011;1025;42.686;23.350;2023-03-14T07:21:00;17.03;;;13.20;;
2039;SDS011;1025;42.686;23.350;2023-03-14T07:23:27;14.83;;;13.43;;
2039;SDS011;1025;42.686;23.350;2023-03-14T07:25:54;13.50;;;11.17;;
2039;SDS011;1025;42.686;23.350;2023-03-14T07:28:21;14.23;;;12.70;;
2039;SDS011;1025;42.686;23.350;2023-03-14T07:30:48;17.97;;;12.20;;
2039;SDS011;1025;42.686;23.350;2023-03-14T07:33:14;17.93;;;14.07;;
2039;SDS011;1025;42.686;23.350;2023-03-14T07:35:41;18.13;;;12.40;;
2039;SDS011;1025;42.686;23.350;2023-03-14T07:38:09;17.93;;;14.37;;
2039;SDS011;1025;42.686;23.350;2023-03-14T07:40:35;17.07;;;13.27;;
2039;SDS011;1025;42.686;23.350;2023-03-14T07:43:02;13.23;;;11.50;;
2039;SDS011;1025;42.686;23.350;2023-03-14T07:45:29;16.20;;;12.60;;
2039;SDS011;1025;42.686;23.350;2023-03-14T07:47:55;13.63;;;11.77;;
2039;SDS011;1025;42.686;23.350;2023-03-14T07:50:23;15.87;;;12.97;;
2039;SDS011;1025;42.686;23.350;2023-03-14T07:52:49;13.73;;;12.13;;
2039;SDS011;1025;42.686;23.350;2023-03-14T07:55:17;19.30;;;12.03;;
2039;SDS011;1025;42.686;23.350;2023-03-14T07:57:44;12.63;;;10.47;;
2039;SDS011;1025;42.686;23.350;2023-03-14T08:00:11;10.47;;;9.37;;
2039;SDS011;1025;42.686;23.350;2023-03-14T08:02:39;15.37;;;12.00;;
2039;SDS011;1025;42.686;23.350;2023-03-14T08:05:05;16.50;;;11.87;;
2039;SDS011;1025;42.686;23.350;2023-03-14T08:07:32;23.43;;;11.63;;
2039;SDS011;1025;42.686;23.350;2023-03-14T08:09:59;11.97;;;10.53;;
2039;SDS011;1025;42.686;23.350;2023-03-14T08:12:27;15.30;;;10.03;;
2039;SDS011;1025;42.686;23.350;2023-03-14T08:14:53;14.00;;;9.60;;
2039;SDS011;1025;42.686;23.350;2023-03-14T08:17:20;18.00;;;10.80;;
2039;SDS011;1025;42.686;23.350;2023-03-14T08:19:46;10.67;;;9.23;;
2039;SDS011;1025;42.686;23.350;2023-03-14T08:22:13;16.13;;;12.23;;
2039;SDS011;1025;42.686;23.350;2023-03-14T08:24:39;25.53;;;10.67;;
2039;SDS011;1025;42.686;23.350;2023-03-14T08:27:06;11.60;;;10.27;;
2039;SDS011;1025;42.686;23.350;2023-03-14T08:29:34;13.50;;;9.20;;
2039;SDS011;1025;42.686;23.350;2023-03-14T08:32:00;10.33;;;9.30;;
2039;SDS011;1025;42.686;23.350;2023-03-14T08:34:27;11.90;;;9.47;;
2039;SDS011;1025;42.686;23.350;2023-03-14T08:36:54;10.03;;;7.73;;
2039;SDS011;1025;42.686;23.350;2023-03-14T08:39:21;14.70;;;8.27;;
2039;SDS011;1025;42.686;23.350;2023-03-14T08:41:49;8.10;;;7.30;;
2039;SDS011;1025;42.686;23.350;2023-03-14T08:44:15;12.07;;;8.90;;
2039;SDS011;1025;42.686;23.350;2023-03-14T08:46:43;11.83;;;7.37;;
2039;SDS011;1025;42.686;23.350;2023-03-14T08:49:10;9.90;;;7.63;;
2039;SDS011;1025;42.686;23.350;2023-03-14T08:51:36;10.73;;;9.00;;
2039;SDS011;1025;42.686;23.350;2023-03-14T08:54:03;12.20;;;9.10;;
2039;SDS011;1025;42.686;23.350;2023-03-14T08:56:29;7.90;;;7.13;;
2039;SDS011;1025;42.686;23.350;2023-03-14T08:58:56;8.03;;;7.33;;
2039;SDS011;1025;42.686;23.350;2023-03-14T09:01:23;9.53;;;7.50;;
2039;SDS011;1025;42.686;23.350;2023-03-14T09:03:52;10.10;;;7.90;;
2039;SDS011;1025;42.686;23.350;2023-03-14T09:06:19;9.70;;;7.70;;
2039;SDS011;1025;42.686;23.350;2023-03-14T09:08:45;7.43;;;6.70;;
2039;SDS011;1025;42.686;23.350;2023-03-14T09:11:12;8.77;;;7.10;;
2039;SDS011;1025;42.686;23.350;2023-03-14T09:13:39;6.77;;;6.07;;
2039;SDS011;1025;42.686;23.350;2023-03-14T09:16:06;6.87;;;6.17;;
2039;SDS011;1025;42.686;23.350;2023-03-14T09:18:33;8.67;;;7.77;;
2039;SDS011;1025;42.686;23.350;2023-03-14T09:21:01;9.27;;;6.93;;
2039;SDS011;1025;42.686;23.350;2023-03-14T09:23:27;12.40;;;6.90;;
2039;SDS011;1025;42.686;23.350;2023-03-14T09:25:54;8.03;;;7.13;;
2039;SDS011;1025;42.686;23.350;2023-03-14T09:28:21;6.57;;;5.93;;
2039;SDS011;1025;42.686;23.350;2023-03-14T09:30:47;6.40;;;5.33;;
2039;SDS011;1025;42.686;23.350;2023-03-14T09:33:14;9.97;;;6.57;;
2039;SDS011;1025;42.686;23.350;2023-03-14T09:35:41;13.23;;;7.03;;
2039;SDS011;1025;42.686;23.350;2023-03-14T09:38:09;7.80;;;6.07;;
2039;SDS011;1025;42.686;23.350;2023-03-14T09:40:36;6.63;;;5.50;;
2039;SDS011;1025;42.686;23.350;2023-03-14T09:43:03;6.63;;;6.03;;
2039;SDS011;1025;42.686;23.350;2023-03-14T09:45:31;6.83;;;5.63;;
2039;SDS011;1025;42.686;23.350;2023-03-14T09:47:59;7.23;;;5.87;;
2039;SDS011;1025;42.686;23.350;2023-03-14T09:50:30;6.77;;;6.07;;
2039;SDS011;1025;42.686;23.350;2023-03-14T09:52:59;8.93;;;8.03;;
2039;SDS011;1025;42.686;23.350;2023-03-14T09:55:29;7.20;;;6.60;;
2039;SDS011;1025;42.686;23.350;2023-03-14T09:57:56;12.73;;;8.23;;
2039;SDS011;1025;42.686;23.350;2023-03-14T10:00:25;7.40;;;6.17;;
2039;SDS011;1025;42.686;23.350;2023-03-14T10:02:52;9.13;;;8.23;;
2039;SDS011;1025;42.686;23.350;2023-03-14T10:05:20;7.53;;;6.83;;
2039;SDS011;1025;42.686;23.350;2023-03-14T10:07:48;8.30;;;7.50;;
2039;SDS011;1025;42.686;23.350;2023-03-14T10:10:15;6.60;;;6.00;;
2039;SDS011;1025;42.686;23.350;2023-03-14T10:12:45;9.43;;;6.87;;
2039;SDS011;1025;42.686;23.350;2023-03-14T10:15:12;15.90;;;10.30;;
2039;SDS011;1025;42.686;23.350;2023-03-14T10:17:40;10.03;;;8.20;;
2039;SDS011;1025;42.686;23.350;2023-03-14T10:20:14;7.27;;;6.47;;
2039;SDS011;1025;42.686;23.350;2023-03-14T10:22:52;9.43;;;6.87;;
2039;SDS011;1025;42.686;23.350;2023-03-14T10:25:24;7.37;;;6.67;;
2039;SDS011;1025;42.686;23.350;2023-03-14T10:27:53;6.17;;;5.43;;
2039;SDS011;1025;42.686;23.350;2023-03-14T10:30:27;6.37;;;5.77;;
2039;SDS011;1025;42.686;23.350;2023-03-14T10:32:53;5.77;;;5.20;;
2039;SDS011;1025;42.686;23.350;2023-03-14T10:35:21;8.70;;;5.97;;
2039;SDS011;1025;42.686;23.350;2023-03-14T10:37:48;5.20;;;4.90;;
2039;SDS011;1025;42.686;23.350;2023-03-14T10:40:16;9.83;;;5.23;;
2039;SDS011;1025;42.686;23.350;2023-03-14T10:42:44;5.30;;;4.90;;
2039;SDS011;1025;42.686;23.350;2023-03-14T10:45:25;6.37;;;5.27;;
2039;SDS011;1025;42.686;23.350;2023-03-14T10:47:54;5.43;;;4.73;;
2039;SDS011;1025;42.686;23.350;2023-03-14T10:50:24;4.90;;;4.50;;
2039;SDS011;1025;42.686;23.350;2023-03-14T10:52:52;4.60;;;4.27;;
2039;SDS011;1025;42.686;23.350;2023-03-14T10:55:19;5.73;;;4.63;;
2039;SDS011;1025;42.686;23.350;2023-03-14T10:57:46;7.33;;;4.93;;
2039;SDS011;1025;42.686;23.350;2023-03-14T11:00:14;4.57;;;4.03;;
2039;SDS011;1025;42.686;23.350;2023-03-14T11:02:47;4.40;;;3.90;;
2039;SDS011;1025;42.686;23.350;2023-03-14T11:05:19;5.03;;;4.20;;
2039;SDS011;1025;42.686;23.350;2023-03-14T11:07:47;4.33;;;3.37;;
2039;SDS011;1025;42.686;23.350;2023-03-14T11:10:18;8.63;;;3.90;;
2039;SDS011;1025;42.686;23.350;2023-03-14T11:12:49;4.80;;;4.37;;
2039;SDS011;1025;42.686;23.350;2023-03-14T11:15:19;6.73;;;4.17;;
2039;SDS011;1025;42.686;23.350;2023-03-14T11:17:50;5.00;;;4.30;;
2039;SDS011;1025;42.686;23.350;2023-03-14T11:20:25;9.10;;;5.90;;
2039;SDS011;1025;42.686;23.350;2023-03-14T11:22:56;9.00;;;7.07;;
2039;SDS011;1025;42.686;23.350;2023-03-14T11:25:26;4.77;;;4.30;;
2039;SDS011;1025;42.686;23.350;2023-03-14T11:27:55;3.87;;;3.57;;
2039;SDS011;1025;42.686;23.350;2023-03-14T11:30:28;5.37;;;3.80;;
2039;SDS011;1025;42.686;23.350;2023-03-14T11:33:00;4.03;;;3.73;;
2039;SDS011;1025;42.686;23.350;2023-03-14T11:35:30;5.30;;;3.57;;
2039;SDS011;1025;42.686;23.350;2023-03-14T11:38:00;4.77;;;3.30;;
2039;SDS011;1025;42.686;23.350;2023-03-14T11:40:29;3.20;;;2.80;;
2039;SDS011;1025;42.686;23.350;2023-03-14T11:42:59;3.53;;;3.23;;
2039;SDS011;1025;42.686;23.350;2023-03-14T11:45:29;3.30;;;3.00;;
2039;SDS011;1025;42.686;23.350;2023-03-14T11:48:03;7.00;;;3.70;;
2039;SDS011;1025;42.686;23.350;2023-03-14T11:50:30;3.33;;;3.03;;
2039;SDS011;1025;42.686;23.350;2023-03-14T11:52:58;3.90;;;3.57;;
2039;SDS011;1025;42.686;23.350;2023-03-14T11:55:28;4.53;;;3.37;;
2039;SDS011;1025;42.686;23.350;2023-03-14T11:57:58;4.07;;;3.40;;
2039;SDS011;1025;42.686;23.350;2023-03-14T12:00:26;4.20;;;3.80;;
2039;SDS011;1025;42.686;23.350;2023-03-14T12:02:53;3.33;;;3.03;;
2039;SDS011;1025;42.686;23.350;2023-03-14T12:05:33;3.83;;;3.10;;
2039;SDS011;1025;42.686;23.350;2023-03-14T12:08:07;2.97;;;2.40;;
2039;SDS011;1025;42.686;23.350;2023-03-14T12:10:45;5.70;;;2.80;;
2039;SDS011;1025;42.686;23.350;2023-03-14T12:13:13;5.60;;;3.73;;
2039;SDS011;1025;42.686;23.350;2023-03-14T12:15:41;2.97;;;2.77;;
2039;SDS011;1025;42.686;23.350;2023-03-14T12:18:14;5.73;;;3.60;;
2039;SDS011;1025;42.686;23.350;2023-03-14T12:20:51;3.50;;;2.97;;
2039;SDS011;1025;42.686;23.350;2023-03-14T12:23:19;6.30;;;2.73;;
2039;SDS011;1025;42.686;23.350;2023-03-14T12:25:46;3.87;;;2.13;;
2039;SDS011;1025;42.686;23.350;2023-03-14T12:28:16;4.87;;;3.47;;
2039;SDS011;1025;42.686;23.350;2023-03-14T12:30:44;2.40;;;2.20;;
2039;SDS011;1025;42.686;23.350;2023-03-14T12:35:56;5.73;;;3.30;;
2039;SDS011;1025;42.686;23.350;2023-03-14T12:38:25;9.07;;;3.33;;
2039;SDS011;1025;42.686;23.350;2023-03-14T12:40:57;6.00;;;3.10;;
2039;SDS011;1025;42.686;23.350;2023-03-14T12:43:25;2.60;;;2.40;;
2039;SDS011;1025;42.686;23.350;2023-03-14T12:48:38;2.50;;;2.30;;
2039;SDS011;1025;42.686;23.350;2023-03-14T12:51:11;5.07;;;2.50;;
2039;SDS011;1025;42.686;23.350;2023-03-14T12:53:45;2.60;;;2.40;;
2039;SDS011;1025;42.686;23.350;2023-03-14T12:56:26;6.93;;;2.87;;
2039;SDS011;1025;42.686;23.350;2023-03-14T12:59:14;2.50;;;2.40;;
2039;SDS011;1025;42.686;23.350;2023-03-14T13:01:46;3.20;;;2.30;;
2039;SDS011;1025;42.686;23.350;2023-03-14T13:04:13;4.03;;;2.60;;
2039;SDS011;1025;42.686;23.350;2023-03-14T13:06:52;3.67;;;1.97;;
2039;SDS011;1025;42.686;23.350;2023-03-14T13:12:16;2.37;;;2.00;;
2039;SDS011;1025;42.686;23.350;2023-03-14T13:14:44;2.10;;;2.00;;
2039;SDS011;1025;42.686;23.350;2023-03-14T13:17:11;2.97;;;2.77;;
2039;SDS011;1025;42.686;23.350;2023-03-14T13:19:38;8.63;;;3.07;;
2039;SDS011;1025;42.686;23.350;2023-03-14T13:22:12;2.40;;;2.20;;
2039;SDS011;1025;42.686;23.350;2023-03-14T13:24:41;4.40;;;2.13;;
2039;SDS011;1025;42.686;23.350;2023-03-14T13:27:08;1.70;;;1.60;;
2039;SDS011;1025;42.686;23.350;2023-03-14T13:29:42;2.50;;;2.20;;
2039;SDS011;1025;42.686;23.350;2023-03-14T13:32:13;4.43;;;2.70;;
2039;SDS011;1025;42.686;23.350;2023-03-14T13:34:42;1.90;;;1.80;;
2039;SDS011;1025;42.686;23.350;2023-03-14T13:37:15;2.50;;;2.30;;
2039;SDS011;1025;42.686;23.350;2023-03-14T13:39:42;2.90;;;2.07;;
2039;SDS011;1025;42.686;23.350;2023-03-14T13:42:10;2.07;;;1.87;;
2039;SDS011;1025;42.686;23.350;2023-03-14T13:44:39;1.97;;;1.70;;
2039;SDS011;1025;42.686;23.350;2023-03-14T13:47:09;2.60;;;2.40;;
2039;SDS011;1025;42.686;23.350;2023-03-14T13:49:36;9.43;;;2.00;;
2039;SDS011;1025;42.686;23.350;2023-03-14T13:52:03;2.30;;;2.00;;
2039;SDS011;1025;42.686;23.350;2023-03-14T13:54:31;2.20;;;2.10;;
2039;SDS011;1025;42.686;23.350;2023-03-14T13:57:01;2.23;;;2.03;;
2039;SDS011;1025;42.686;23.350;2023-03-14T13:59:30;4.00;;;2.63;;
2039;SDS011;1025;42.686;23.350;2023-03-14T14:01:57;2.23;;;2.03;;
2039;SDS011;1025;42.686;23.350;2023-03-14T14:04:25;4.83;;;3.10;;
2039;SDS011;1025;42.686;23.350;2023-03-14T14:06:53;2.40;;;2.30;;
2039;SDS011;1025;42.686;23.350;2023-03-14T14:09:20;2.80;;;2.60;;
2039;SDS011;1025;42.686;23.350;2023-03-14T14:11:51;2.30;;;2.20;;
2039;SDS011;1025;42.686;23.350;2023-03-14T14:14:20;2.13;;;2.00;;
2039;SDS011;1025;42.686;23.350;2023-03-14T14:16:48;4.10;;;2.60;;
2039;SDS011;1025;42.686;23.350;2023-03-14T14:19:16;3.33;;;2.37;;
2039;SDS011;1025;42.686;23.350;2023-03-14T14:21:43;1.90;;;1.80;;
2039;SDS011;1025;42.686;23.350;2023-03-14T14:24:10;2.10;;;1.97;;
2039;SDS011;1025;42.686;23.350;2023-03-14T14:26:39;2.13;;;1.93;;
2039;SDS011;1025;42.686;23.350;2023-03-14T14:29:16;2.40;;;1.83;;
2039;SDS011;1025;42.686;23.350;2023-03-14T14:31:47;1.80;;;1.70;;
2039;SDS011;1025;42.686;23.350;2023-03-14T14:34:25;3.30;;;2.83;;
2039;SDS011;1025;42.686;23.350;2023-03-14T14:36:52;3.93;;;2.30;;
2039;SDS011;1025;42.686;23.350;2023-03-14T14:39:20;2.13;;;2.03;;
2039;SDS011;1025;42.686;23.350;2023-03-14T14:41:47;1.80;;;1.70;;
2039;SDS011;1025;42.686;23.350;2023-03-14T14:44:16;3.43;;;1.90;;
2039;SDS011;1025;42.686;23.350;2023-03-14T14:46:44;2.90;;;1.90;;
2039;SDS011;1025;42.686;23.350;2023-03-14T14:49:12;1.87;;;1.77;;
2039;SDS011;1025;42.686;23.350;2023-03-14T14:51:40;2.90;;;2.13;;
2039;SDS011;1025;42.686;23.350;2023-03-14T14:54:12;1.97;;;1.87;;
2039;SDS011;1025;42.686;23.350;2023-03-14T14:56:39;4.17;;;2.17;;
2039;SDS011;1025;42.686;23.350;2023-03-14T14:59:06;2.33;;;2.13;;
2039;SDS011;1025;42.686;23.350;2023-03-14T15:01:35;3.93;;;2.10;;
2039;SDS011;1025;42.686;23.350;2023-03-14T15:04:03;3.33;;;1.50;;
2039;SDS011;1025;42.686;23.350;2023-03-14T15:06:30;1.57;;;1.47;;
2039;SDS011;1025;42.686;23.350;2023-03-14T15:08:57;1.80;;;1.70;;